Time;durP1;ratioP1;P1;durP2;ratioP2;P2;SDS_P1;SDS_P2;PMS_P1;PMS_P2;Temp;Humidity;BMP_temperature;BMP_pressure;BME280_temperature;BME280_humidity;BME280_pressure;Samples;Min_cycle;Max_cycle;Signal;HPM_P1;HPM_P2
2022/06/18 00:08:22;;;;;;;20.08;7.03;;;;;;;;;;21000043;28;20057;-67
2022/06/18 00:18:44;;;;;;;20.83;5.82;;;;;;;;;;21001036;28;20515;-67
2022/06/18 00:29:09;;;;;;;23.45;5.05;;;;;;;;;;20998914;28;20052;-65
2022/06/18 00:39:28;;;;;;;16.38;4.45;;;;;;;;;;20997946;28;20151;-60
2022/06/18 00:50:02;;;;;;;16.75;4.55;;;;;;;;;;20996827;28;20080;-66
2022/06/18 01:00:28;;;;;;;17.95;5.60;;;;;;;;;;20996645;28;20060;-67
2022/06/18 01:10:57;;;;;;;17.77;5.05;;;;;;;;;;20997118;28;20094;-59
2022/06/18 01:21:31;;;;;;;19.65;5.10;;;;;;;;;;20994535;28;20052;-69
2022/06/18 01:31:53;;;;;;;15.60;4.57;;;;;;;;;;20996165;28;20083;-57
2022/06/18 01:42:20;;;;;;;12.73;4.50;;;;;;;;;;20995611;28;20055;-67
2022/06/18 01:52:44;;;;;;;13.57;4.13;;;;;;;;;;20996626;28;20049;-67
2022/06/18 02:03:06;;;;;;;15.55;4.90;;;;;;;;;;20994780;28;20056;-68
2022/06/18 02:13:32;;;;;;;12.82;3.75;;;;;;;;;;21008654;28;20080;-67
2022/06/18 02:23:54;;;;;;;16.75;3.75;;;;;;;;;;20994054;28;20052;-57
2022/06/18 02:34:33;;;;;;;23.95;5.30;;;;;;;;;;21007391;28;20496;-59
2022/06/18 02:44:55;;;;;;;11.67;3.53;;;;;;;;;;21006898;28;20049;-59
2022/06/18 02:55:34;;;;;;;19.42;5.32;;;;;;;;;;21008435;28;20048;-59
2022/06/18 03:05:55;;;;;;;14.63;4.10;;;;;;;;;;21005540;28;20075;-57
2022/06/18 03:16:18;;;;;;;11.30;3.72;;;;;;;;;;21005796;28;20041;-57
2022/06/18 03:26:40;;;;;;;14.43;3.78;;;;;;;;;;21005144;28;20049;-57
2022/06/18 03:37:01;;;;;;;17.13;4.40;;;;;;;;;;21005161;28;20474;-62
2022/06/18 03:47:23;;;;;;;15.48;4.72;;;;;;;;;;21002208;28;20064;-62
2022/06/18 03:57:44;;;;;;;13.95;4.10;;;;;;;;;;21002322;28;20052;-65
2022/06/18 04:08:06;;;;;;;14.65;4.22;;;;;;;;;;21000291;28;20114;-67
2022/06/18 04:18:28;;;;;;;11.95;5.03;;;;;;;;;;20999146;28;20052;-59
2022/06/18 04:28:50;;;;;;;20.25;6.15;;;;;;;;;;20999070;28;20053;-68
2022/06/18 04:39:12;;;;;;;16.08;4.20;;;;;;;;;;20998563;28;20048;-67
2022/06/18 04:49:33;;;;;;;21.17;5.32;;;;;;;;;;20997239;28;20504;-66
2022/06/18 04:59:55;;;;;;;19.70;5.97;;;;;;;;;;20997304;28;20412;-67
2022/06/18 05:10:10;;;;;;;14.60;4.38;;;;;;;;;;20996409;28;20135;-68
2022/06/18 05:20:31;;;;;;;15.07;4.80;;;;;;;;;;20997198;28;20429;-67
2022/06/18 05:30:53;;;;;;;23.23;4.65;;;;;;;;;;20995319;28;20049;-69
2022/06/18 05:41:15;;;;;;;19.38;4.28;;;;;;;;;;20994502;28;20102;-67
2022/06/18 05:51:36;;;;;;;16.98;3.95;;;;;;;;;;20993895;28;20040;-65
2022/06/18 06:01:58;;;;;;;15.98;4.43;;;;;;;;;;20994711;28;20054;-68
2022/06/18 06:12:19;;;;;;;19.55;4.97;;;;;;;;;;21008946;28;20037;-68
2022/06/18 06:22:41;;;;;;;15.35;3.83;;;;;;;;;;21007570;28;20055;-67
2022/06/18 06:33:02;;;;;;;16.60;4.75;;;;;;;;;;21008463;28;20503;-67
2022/06/18 06:43:24;;;;;;;15.55;4.25;;;;;;;;;;21007139;28;20045;-58
2022/06/18 06:53:46;;;;;;;12.90;4.00;;;;;;;;;;21008044;28;20474;-67
2022/06/18 07:04:09;;;;;;;20.40;4.93;;;;;;;;;;21005299;28;20057;-61
2022/06/18 07:14:30;;;;;;;21.50;5.63;;;;;;;;;;21003274;28;20045;-64
2022/06/18 07:24:52;;;;;;;18.15;4.95;;;;;;;;;;21003710;28;20048;-64
2022/06/18 07:35:34;;;;;;;15.13;3.85;;;;;;;;;;21004188;28;20057;-67
2022/06/18 07:45:55;;;;;;;13.68;4.00;;;;;;;;;;21001932;28;20513;-66
2022/06/18 07:56:17;;;;;;;14.70;4.63;;;;;;;;;;21002130;28;20051;-67
2022/06/18 08:06:39;;;;;;;15.30;4.88;;;;;;;;;;21000631;28;20052;-66
2022/06/18 08:17:00;;;;;;;14.77;4.15;;;;;;;;;;21004619;28;20048;-69
2022/06/18 08:27:22;;;;;;;14.13;4.43;;;;;;;;;;21000018;28;20063;-61
2022/06/18 08:37:44;;;;;;;11.13;3.92;;;;;;;;;;20997147;28;20162;-64
2022/06/18 08:48:17;;;;;;;16.58;4.43;;;;;;;;;;20997489;28;20063;-58
2022/06/18 08:58:50;;;;;;;15.60;4.18;;;;;;;;;;20998515;28;21155;-58
2022/06/18 09:09:21;;;;;;;20.00;4.50;;;;;;;;;;20996435;28;20053;-58
2022/06/18 09:19:45;;;;;;;11.70;4.00;;;;;;;;;;20995489;28;20111;-57
2022/06/18 09:30:10;;;;;;;15.93;3.83;;;;;;;;;;20995045;28;20052;-62
2022/06/18 09:40:40;;;;;;;16.35;4.13;;;;;;;;;;20995758;28;20049;-69
2022/06/18 09:51:05;;;;;;;17.38;4.20;;;;;;;;;;20994953;28;20045;-60
2022/06/18 10:01:31;;;;;;;16.35;4.05;;;;;;;;;;20994076;28;20063;-62
2022/06/18 10:11:52;;;;;;;21.67;4.20;;;;;;;;;;20994886;28;20056;-60
2022/06/18 10:22:17;;;;;;;14.75;5.07;;;;;;;;;;20993909;28;20113;-58
2022/06/18 10:32:44;;;;;;;14.68;4.07;;;;;;;;;;20994571;28;20447;-59
2022/06/18 10:43:12;;;;;;;13.50;4.00;;;;;;;;;;20993115;28;20447;-57
2022/06/18 10:53:35;;;;;;;12.57;4.43;;;;;;;;;;21003911;28;20059;-57
2022/06/18 11:03:59;;;;;;;16.20;4.97;;;;;;;;;;21005433;28;20056;-58
2022/06/18 11:14:21;;;;;;;15.55;4.07;;;;;;;;;;21005125;28;20140;-58
2022/06/18 11:24:43;;;;;;;15.95;5.28;;;;;;;;;;21004303;28;20045;-57
2022/06/18 11:35:07;;;;;;;19.33;5.22;;;;;;;;;;21002702;28;20048;-55
2022/06/18 11:45:40;;;;;;;14.50;4.68;;;;;;;;;;21001972;28;20074;-56
2022/06/18 11:56:03;;;;;;;22.23;5.18;;;;;;;;;;21002230;28;20045;-58
2022/06/18 12:06:28;;;;;;;19.30;5.00;;;;;;;;;;20999188;28;20492;-57
2022/06/18 12:17:03;;;;;;;15.82;4.30;;;;;;;;;;21001072;28;20048;-67
2022/06/18 12:27:29;;;;;;;17.73;4.72;;;;;;;;;;20999938;28;20057;-65
2022/06/18 12:37:50;;;;;;;11.00;3.72;;;;;;;;;;20999932;28;20454;-58
2022/06/18 12:48:31;;;;;;;14.07;4.47;;;;;;;;;;20997128;28;20119;-71
2022/06/18 12:58:59;;;;;;;21.85;5.45;;;;;;;;;;20998144;28;20098;-73
2022/06/18 13:09:20;;;;;;;13.82;4.38;;;;;;;;;;20996802;28;20045;-72
2022/06/18 13:19:44;;;;;;;17.08;3.92;;;;;;;;;;20996445;28;20045;-66
2022/06/18 13:30:22;;;;;;;18.27;4.57;;;;;;;;;;20996241;28;20048;-71
2022/06/18 13:40:52;;;;;;;17.73;4.47;;;;;;;;;;21016713;28;20091;-61
2022/06/18 13:51:24;;;;;;;14.32;4.20;;;;;;;;;;21021644;28;20144;-70
2022/06/18 14:01:56;;;;;;;15.20;3.88;;;;;;;;;;21010476;28;20059;-71
2022/06/18 14:12:34;;;;;;;19.08;5.22;;;;;;;;;;20995507;28;20051;-71
2022/06/18 14:22:59;;;;;;;18.27;4.22;;;;;;;;;;20995683;28;20044;-57
2022/06/18 14:33:23;;;;;;;12.45;4.10;;;;;;;;;;21010068;28;20112;-58
2022/06/18 14:44:00;;;;;;;16.67;5.60;;;;;;;;;;21008427;28;20064;-68
2022/06/18 14:54:34;;;;;;;18.95;4.75;;;;;;;;;;21006921;28;20048;-63
2022/06/18 15:04:57;;;;;;;17.23;5.10;;;;;;;;;;21005772;28;20067;-57
2022/06/18 15:15:21;;;;;;;17.58;5.40;;;;;;;;;;21005177;28;20043;-58
2022/06/18 15:25:43;;;;;;;18.85;6.57;;;;;;;;;;21003867;28;20059;-56
2022/06/18 15:36:15;;;;;;;20.13;6.10;;;;;;;;;;21002171;28;20055;-59
2022/06/18 15:46:36;;;;;;;16.35;5.15;;;;;;;;;;21003535;28;20063;-57
2022/06/18 15:57:04;;;;;;;16.85;4.82;;;;;;;;;;21002442;28;20053;-58
2022/06/18 16:07:26;;;;;;;14.35;3.53;;;;;;;;;;21000707;28;20056;-71
2022/06/18 16:17:47;;;;;;;20.38;5.47;;;;;;;;;;21000823;28;20102;-58
2022/06/18 16:28:29;;;;;;;19.80;4.90;;;;;;;;;;20999883;28;20057;-67
2022/06/18 16:38:51;;;;;;;15.43;4.03;;;;;;;;;;20999939;28;20052;-70
2022/06/18 16:49:17;;;;;;;13.27;3.20;;;;;;;;;;20997258;28;20063;-69
2022/06/18 16:59:38;;;;;;;17.73;4.60;;;;;;;;;;20997845;28;20413;-65
2022/06/18 17:10:01;;;;;;;14.57;4.60;;;;;;;;;;20996848;28;20510;-71
2022/06/18 17:20:20;;;;;;;17.58;4.80;;;;;;;;;;20996762;28;20170;-68
2022/06/18 17:41:22;;;;;;;18.55;5.70;;;;;;;;;;20995614;28;20401;-70
2022/06/18 17:51:44;;;;;;;14.82;4.70;;;;;;;;;;20995660;28;20549;-66
2022/06/18 18:02:12;;;;;;;10.80;3.80;;;;;;;;;;21003923;28;20381;-69
2022/06/18 18:12:33;;;;;;;;;;;;;;;;;;21010902;28;20044;-67
2022/06/18 18:22:54;;;;;;;16.33;5.22;;;;;;;;;;21008513;28;19924;-70
2022/06/18 18:33:16;;;;;;;14.95;5.20;;;;;;;;;;21009427;28;20044;-61
2022/06/18 18:43:38;;;;;;;15.85;5.82;;;;;;;;;;21008615;28;20059;-60
2022/06/18 18:54:01;;;;;;;9.35;4.18;;;;;;;;;;21007174;28;20049;-60
2022/06/18 19:04:22;;;;;;;17.35;5.13;;;;;;;;;;21005477;28;20516;-61
2022/06/18 19:14:24;;;;;;;16.30;5.05;;;;;;;;;;21005882;28;20040;-61
2022/06/18 19:24:27;;;;;;;15.85;6.15;;;;;;;;;;21004568;28;20179;-62
2022/06/18 19:34:28;;;;;;;10.88;5.10;;;;;;;;;;21003469;28;20397;-62
2022/06/18 19:44:29;;;;;;;14.23;4.93;;;35.00;24.80;;;;;;21001959;28;20044;-61
2022/06/18 19:54:32;;;;;;;16.73;5.93;;;34.80;25.00;;;;;;21002341;28;20141;-60
2022/06/18 20:04:33;;;;;;;13.73;5.20;;;34.60;25.10;;;;;;20999302;28;20428;-61
2022/06/18 20:14:56;;;;;;;13.10;5.78;;;34.30;25.40;;;;;;21001699;28;20512;-60
2022/06/18 20:25:18;;;;;;;11.98;5.25;;;34.20;25.50;;;;;;20998674;28;20059;-61
2022/06/18 20:35:46;;;;;;;14.93;4.72;;;34.10;25.70;;;;;;20999235;28;20041;-62
2022/06/18 20:46:13;;;;;;;17.58;5.05;;;34.00;25.20;;;;;;20998465;28;20056;-60
2022/06/18 21:07:15;;;;;;;14.85;4.57;;;33.70;24.40;;;;;;20996835;28;20056;-62
2022/06/18 21:17:36;;;;;;;12.68;4.32;;;33.60;24.30;;;;;;20996173;28;20051;-58
2022/06/18 21:27:58;;;;;;;11.32;3.50;;;33.30;25.00;;;;;;20995691;28;20404;-59
2022/06/18 21:38:19;;;;;;;17.50;3.90;;;33.00;25.70;;;;;;20994371;28;20455;-60
2022/06/18 21:48:41;;;;;;;13.75;3.30;;;32.80;26.50;;;;;;20995483;28;20055;-60
2022/06/18 21:59:03;;;;;;;13.07;3.30;;;32.50;27.20;;;;;;20994385;28;20048;-59
2022/06/18 22:09:24;;;;;;;11.40;4.35;;;32.50;27.50;;;;;;20994030;28;20048;-59
2022/06/18 22:19:46;;;;;;;15.43;6.15;;;31.90;29.00;;;;;;20993134;28;20170;-62
2022/06/18 22:30:08;;;;;;;9.02;3.25;;;31.40;29.90;;;;;;20993051;28;20057;-60
2022/06/18 22:40:35;;;;;;;11.73;3.83;;;31.00;29.10;;;;;;20992777;28;20045;-61
2022/06/18 22:50:56;;;;;;;10.05;3.47;;;30.80;29.00;;;;;;21004740;28;20048;-61
2022/06/18 23:01:17;;;;;;;9.75;2.50;;;30.60;28.20;;;;;;21007061;28;20056;-60
2022/06/18 23:11:47;;;;;;;6.30;2.33;;;30.20;26.80;;;;;;21006458;28;20052;-62
2022/06/18 23:22:04;;;;;;;8.40;2.35;;;29.80;26.80;;;;;;21005191;28;20059;-61
2022/06/18 23:32:30;;;;;;;12.38;2.60;;;29.60;26.50;;;;;;21005835;28;20045;-60
2022/06/18 23:42:53;;;;;;;5.18;1.75;;;29.10;26.30;;;;;;21002552;28;20048;-61
2022/06/18 23:53:14;;;;;;;5.05;1.35;;;28.80;27.10;;;;;;21002496;28;20045;-61
